Etusivu
METAR-TAF:

METAR-TAF

Lentoasemat :

Merrill Municipal Airport

Merrill, Wisconsin, Yhdysvallat

Leveyspiiri: 45-11N, Pituuspiiri: 089-42W, korkeus merenpinnasta: 401 m

Tämänhetkinen sää

Tämä raportti tehtiin 12 minuuttia sitten, kello 12.55 UTC
tyyntä
Lämpötila 9°C
Kosteus 100%
Ilmanpaine 1020 hPa
Näkyvyys: 16.1 km
Hajanaisia pilviä 200 ft:n korkeudessa

METAR: KRRL 051255Z AUTO 00000KT 10SM SCT002 09/09 A3011 RMK AO2 T00910091 TSNO

Aika: 08:07 (13:07 UTC)


TAF: puuttuu

Säähavainnot ja -ennusteet yli 4000 lentoasemalta (METAR- ja TAF-raportit).

Käytössä olevat sääasemat on merkitty karttaan keltaisilla ja punaisilla pisteillä.

Aseta hiiri pisteen päälle nähdäksesi sääaseman nimen.

Klikkaa sitten nähdäksesi säähavainnot ja -ennusteet.

Kartan vaihtaminen: klikkaa mustalla rastilla varustettuja vihreitä pisteitä, niin voit zoomata sisään; viivalla varustettua vihreää pistettä, niin voit zoomata ulos tai vihreitä nuolia, niin pääset viereisille kartoille.


METAR-TAF: